Fox Chase Manor, Pennsylvania
Current Conditions -  °F | °C
As of 6:54 AM on Thursday 27 Nov 2014 (Local Time) from KPNE Reporting Station
Overcast Overcast  
Wind Chill: 31°   Ceiling: 5000
Heat Index: 36°   Visibility: 10mi
Dew Point: 30°   Wind: 6mph
Humidity: 79%   Direction: 320°NW
Pressure: 30"   Gusts: NA
Location:  40.1039°N, 75.1072°W
Report Text: KPNE 271154Z AUTO 32005KT 10SM BKN050 OVC075 02/M01 A3000 RMK AO2 SLP160 60000 70107 T00221011 10028 20022 53008 TSNO
Loading
Personal Weather Stations






























Interactive Weather Map New forecast layout! Learn more

10-Day Weather Forecast

Advertisements
Track Severe Weather on mobile